createdAt,value
2023-10-31T00:06:50.250Z,57.7
2023-10-31T00:12:41.544Z,57.6
2023-10-31T00:18:44.526Z,57.6
2023-10-31T00:24:36.278Z,57.6
2023-10-31T00:30:28.038Z,57.5
2023-10-31T00:36:20.751Z,57.4
2023-10-31T00:42:14.102Z,57.4
2023-10-31T00:47:50.460Z,57.4
2023-10-31T00:53:26.867Z,57.3
2023-10-31T00:59:03.043Z,57.3
2023-10-31T01:04:39.823Z,57.3
2023-10-31T01:10:31.509Z,57.1
2023-10-31T01:16:08.515Z,57.1
2023-10-31T01:22:00.267Z,57.1
2023-10-31T01:27:37.111Z,57.1
2023-10-31T01:33:45.844Z,57
2023-10-31T01:39:22.547Z,56.9
2023-10-31T01:45:13.982Z,56.9
2023-10-31T01:51:06.308Z,56.9
2023-10-31T01:56:58.583Z,56.8
2023-10-31T02:02:34.431Z,56.8
2023-10-31T02:08:26.854Z,56.8
2023-10-31T02:14:18.088Z,56.7
2023-10-31T02:20:09.478Z,56.6
2023-10-31T02:26:01.717Z,56.6
2023-10-31T02:31:53.939Z,56.6
2023-10-31T02:37:46.107Z,56.5
2023-10-31T02:43:38.182Z,56.4
2023-10-31T02:49:14.409Z,56.4
2023-10-31T02:55:05.591Z,56.4
2023-10-31T03:00:57.535Z,56.4
2023-10-31T03:06:49.477Z,56.3
2023-10-31T03:12:41.079Z,56.3
2023-10-31T03:18:18.410Z,56.2
2023-10-31T03:24:10.128Z,56.1
2023-10-31T03:30:01.101Z,56.1
2023-10-31T03:35:54.144Z,56.1
2023-10-31T03:41:46.050Z,56.1
2023-10-31T03:47:37.464Z,56
2023-10-31T03:53:13.797Z,55.9
2023-10-31T03:58:49.597Z,55.9
2023-10-31T04:04:26.426Z,55.9
2023-10-31T04:10:02.928Z,55.8
2023-10-31T04:15:38.806Z,55.8
2023-10-31T04:21:16.226Z,55.8
2023-10-31T04:27:08.115Z,55.7
2023-10-31T04:33:18.347Z,55.6
2023-10-31T04:39:12.444Z,55.6
2023-10-31T04:45:05.053Z,55.6
2023-10-31T04:50:42.560Z,55.6
2023-10-31T04:56:21.821Z,55.5
2023-10-31T05:01:58.423Z,55.3
2023-10-31T05:07:49.122Z,55.3
2023-10-31T05:13:28.791Z,55.2
2023-10-31T05:19:06.314Z,55.2
2023-10-31T05:24:43.605Z,55.1
2023-10-31T05:30:36.957Z,55.1
2023-10-31T05:36:14.560Z,55
2023-10-31T05:42:06.106Z,54.9
2023-10-31T05:47:43.948Z,54.9
2023-10-31T05:53:35.982Z,54.8
2023-10-31T05:59:28.189Z,54.8
2023-10-31T06:05:21.561Z,54.8
2023-10-31T06:11:14.419Z,54.7
2023-10-31T06:17:07.507Z,54.6
2023-10-31T06:22:59.215Z,54.6
2023-10-31T06:29:03.100Z,54.5
2023-10-31T06:35:43.228Z,54.4
2023-10-31T06:41:19.530Z,54.4
2023-10-31T06:47:16.101Z,54.3
2023-10-31T06:53:10.167Z,54.3
2023-10-31T06:58:46.408Z,54.3
2023-10-31T07:04:24.556Z,54.2
2023-10-31T07:10:02.622Z,54.1
2023-10-31T07:15:54.526Z,54.1
2023-10-31T07:21:47.111Z,54
2023-10-31T07:27:38.553Z,53.9
2023-10-31T07:33:17.455Z,53.9
2023-10-31T07:39:10.221Z,53.9
2023-10-31T07:44:47.007Z,53.8
2023-10-31T07:50:08.759Z,53.8
2023-10-31T07:56:04.862Z,53.8
2023-10-31T08:01:56.613Z,53.7
2023-10-31T08:07:49.439Z,53.6
2023-10-31T08:13:42.077Z,53.6
2023-10-31T08:19:34.495Z,53.6
2023-10-31T08:25:25.695Z,53.5
2023-10-31T08:31:18.059Z,53.4
2023-10-31T08:37:09.928Z,53.4
2023-10-31T08:43:12.170Z,53.4
2023-10-31T08:49:06.552Z,53.6
2023-10-31T08:54:42.041Z,53.9
2023-10-31T09:00:33.829Z,54.3
2023-10-31T09:06:26.670Z,54.7
2023-10-31T09:12:18.301Z,55.1
2023-10-31T09:18:09.647Z,55.5
2023-10-31T09:24:02.375Z,55.9
2023-10-31T09:29:46.232Z,56.4
2023-10-31T09:35:23.374Z,56.8
2023-10-31T09:40:46.392Z,57.2
2023-10-31T09:46:26.274Z,57.6
2023-10-31T09:52:02.500Z,58
2023-10-31T09:57:40.210Z,58.4
2023-10-31T10:03:20.108Z,58.8
2023-10-31T10:08:57.792Z,59.2
2023-10-31T10:14:34.507Z,59.5
2023-10-31T10:20:27.244Z,59.7
2023-10-31T10:26:12.460Z,59.9
2023-10-31T10:31:49.648Z,59.9
2023-10-31T10:37:11.467Z,59.8
2023-10-31T10:42:32.765Z,59.9
2023-10-31T10:47:55.591Z,60
2023-10-31T10:53:02.019Z,60
2023-10-31T10:58:38.400Z,59.9
2023-10-31T11:04:01.054Z,59.9
2023-10-31T11:09:07.863Z,59.9
2023-10-31T11:14:28.617Z,59.9
2023-10-31T11:19:50.121Z,59.9
2023-10-31T11:25:14.079Z,59.9
2023-10-31T11:30:41.272Z,59.9
2023-10-31T11:36:18.477Z,59.9
2023-10-31T11:41:39.804Z,59.8
2023-10-31T11:47:16.293Z,59.8
2023-10-31T11:52:58.481Z,59.8
2023-10-31T11:58:19.144Z,59.8
2023-10-31T12:04:11.089Z,59.7
2023-10-31T12:10:06.623Z,59.6
2023-10-31T12:15:44.356Z,59.6
2023-10-31T12:21:22.204Z,59.6
2023-10-31T12:27:14.517Z,59.6
2023-10-31T12:32:52.162Z,59.5
2023-10-31T12:38:28.538Z,59.4
2023-10-31T12:44:05.718Z,59.4
2023-10-31T12:49:41.767Z,59.4
2023-10-31T12:55:18.891Z,59.3
2023-10-31T13:00:25.796Z,59.3
2023-10-31T13:06:21.205Z,59.3
2023-10-31T13:11:57.798Z,59.2
2023-10-31T13:17:34.582Z,59.2
2023-10-31T13:22:56.052Z,59.1
2023-10-31T13:28:01.990Z,59.1
2023-10-31T13:33:25.175Z,59.1
2023-10-31T13:38:46.943Z,59
2023-10-31T13:44:08.457Z,59
2023-10-31T13:49:45.835Z,58.9
2023-10-31T13:55:22.249Z,58.9
2023-10-31T14:00:59.475Z,58.9
2023-10-31T14:06:55.765Z,58.8
2023-10-31T14:12:34.131Z,58.8
2023-10-31T14:18:13.001Z,58.7
2023-10-31T14:23:50.860Z,58.7
2023-10-31T14:29:32.180Z,58.6
2023-10-31T14:34:39.562Z,58.6
2023-10-31T14:45:38.567Z,58.5
2023-10-31T14:51:15.400Z,58.5
2023-10-31T14:56:52.637Z,58.4
2023-10-31T15:02:13.913Z,58.4
2023-10-31T15:07:53.307Z,58.4
2023-10-31T15:13:17.941Z,58.3
2023-10-31T15:18:54.635Z,58.3
2023-10-31T15:24:46.988Z,58.3
2023-10-31T15:30:25.414Z,58.2
2023-10-31T15:36:01.838Z,58.1
2023-10-31T15:41:31.602Z,58.1
2023-10-31T15:47:08.945Z,58.1
2023-10-31T15:52:45.202Z,58
2023-10-31T15:58:22.554Z,58
2023-10-31T16:03:47.421Z,57.9
2023-10-31T16:09:09.002Z,57.9
2023-10-31T16:14:47.649Z,57.9
2023-10-31T16:20:25.214Z,57.8
2023-10-31T16:37:02.069Z,57.7
2023-10-31T16:42:41.517Z,57.6
2023-10-31T16:48:33.531Z,57.6
2023-10-31T16:53:55.289Z,57.6
2023-10-31T16:59:18.220Z,57.5
2023-10-31T17:04:39.998Z,57.4
2023-10-31T17:10:17.641Z,57.4
2023-10-31T17:16:10.057Z,57.4
2023-10-31T17:22:03.069Z,57.3
2023-10-31T17:27:45.249Z,57.3
2023-10-31T17:33:53.170Z,57.3
2023-10-31T17:39:45.643Z,57.2
2023-10-31T17:45:23.009Z,57.1
2023-10-31T17:51:16.014Z,57.1
2023-10-31T17:56:40.328Z,57.1
2023-10-31T18:02:18.102Z,57
2023-10-31T18:07:39.998Z,56.9
2023-10-31T18:13:20.253Z,56.9
2023-10-31T18:18:57.325Z,56.9
2023-10-31T18:24:35.626Z,56.9
2023-10-31T18:30:28.165Z,56.8
2023-10-31T18:36:27.320Z,56.8
2023-10-31T18:42:40.537Z,56.7
2023-10-31T18:49:10.329Z,56.6
2023-10-31T18:55:03.898Z,56.6
2023-10-31T19:00:43.048Z,56.6
2023-10-31T19:06:21.241Z,56.5
2023-10-31T19:11:43.672Z,56.5
2023-10-31T19:17:06.039Z,56.4
2023-10-31T19:23:00.010Z,56.4
2023-10-31T19:28:39.333Z,56.4
2023-10-31T19:34:17.270Z,56.3
2023-10-31T19:40:10.248Z,56.3
2023-10-31T19:46:04.486Z,56.2
2023-10-31T19:51:58.757Z,56.1
2023-10-31T19:57:54.091Z,56.1
2023-10-31T20:03:52.686Z,56.1
2023-10-31T20:09:46.236Z,56
2023-10-31T20:15:50.307Z,55.9
2023-10-31T20:21:29.054Z,55.9
2023-10-31T20:26:50.767Z,55.9
2023-10-31T20:32:27.923Z,55.8
2023-10-31T20:38:05.448Z,55.9
2023-10-31T20:43:42.253Z,55.8
2023-10-31T20:49:21.253Z,55.8
2023-10-31T20:55:14.020Z,55.7
2023-10-31T21:00:51.090Z,55.6
2023-10-31T21:06:15.525Z,55.6
2023-10-31T21:11:52.904Z,55.6
2023-10-31T21:17:30.086Z,55.5
2023-10-31T21:23:15.847Z,55.4
2023-10-31T21:28:53.582Z,55.4
2023-10-31T21:34:32.867Z,55.4
2023-10-31T21:40:24.545Z,55.3
2023-10-31T21:46:01.141Z,55.3
2023-10-31T21:51:52.922Z,55.2
2023-10-31T21:57:46.585Z,55.2
2023-10-31T22:03:39.895Z,55.2
2023-10-31T22:09:32.594Z,55.1
2023-10-31T22:15:09.891Z,55.1
2023-10-31T22:21:02.322Z,55
2023-10-31T22:26:54.272Z,55
2023-10-31T22:32:46.670Z,54.9
2023-10-31T22:38:23.250Z,54.9
2023-10-31T22:44:14.633Z,54.9
2023-10-31T22:49:36.231Z,54.8
2023-10-31T22:54:57.868Z,54.8
2023-10-31T23:00:50.541Z,54.8
2023-10-31T23:06:43.363Z,54.7
2023-10-31T23:12:40.923Z,54.7
2023-10-31T23:18:16.852Z,54.6
2023-10-31T23:24:08.524Z,54.6
2023-10-31T23:29:45.543Z,54.6
2023-10-31T23:35:47.237Z,54.4
2023-10-31T23:41:38.403Z,54.4
2023-10-31T23:47:14.914Z,54.4
2023-10-31T23:52:35.756Z,54.3
2023-10-31T23:58:27.416Z,54.3
